San Jose Del Cabo, Mexico

3:03 PM MDT on August 27, 2014 (GMT -0600)
El Zacatal | Change Station
CLOSE
Current Station
Personal Weather Station
Location: San Jose del Cabo, BAJA CALIFORNIA SUR
Elevation: 128 ft
Nearby Weather Stations

Elev 128 ft 23.10 °N, 109.71 °W | Updated 0 second ago

Scattered Clouds
Scattered Clouds
96.4 °F
Feels Like 111 °F
N
7.0
Wind Variable Wind from SE
Gusts 10.0 mph

Today
High -- | Low -- °F
--% Chance of Precip.
Yesterday
High -- | Low -- °F
Precip. -- in
6:59 AM 7:40 PM
Waxing Crescent, 5% visible
Pressure 29.86 in
Visibility 15.0 miles
Clouds Scattered Clouds 5000 ft
Scattered Clouds 14000 ft
Heat Index 111 °F
Dew Point 77 °F
Humidity 53%
Rainfall 0.00 in
Snow Depth Not available.
UV 9 out of 12
Pollen Not available.
Air Quality Not available.
Flu Activity Not available.
METAR MMSD 272040Z 20007KT 15SM SCT050 SCT140 33/21 A2989 RMK SLP109 57020 952 8/130 CI

More Conditions Fewer Conditions

Pressure 29.86 in
Visibility 15.0 miles
Clouds Scattered Clouds 5000 ft
Scattered Clouds 14000 ft
Heat Index 111 °F
Dew Point 77 °F
Humidity 53%
Rainfall 0.00 in
Snow Depth Not available.
UV 9 out of 12
Pollen Not available.
Air Quality Not available.
Flu Activity Not available.
METAR MMSD 272040Z 20007KT 15SM SCT050 SCT140 33/21 A2989 RMK SLP109 57020 952 8/130 CI

More Conditions Fewer Conditions

10-Day Weather Forecast

Almanac

Astronomy

Aug. 27, 2014 Rise Set
Actual Time 6:59 AM MDT 7:40 PM MDT
Civil Twilight 6:36 AM MDT 8:03 PM MDT
Nautical Twilight 6:09 AM MDT 8:30 PM MDT
Astronomical Twilight 5:41 AM MDT 8:58 PM MDT
Moon 8:40 AM MDT 8:56 PM MDT
Length of Visible Light 13h 27m
Length of Day
12h 41m
Tomorrow will be 1m 16s shorter.
Waxing Crescent, 5% of the Moon is Illuminated
Today
Waxing Crescent
Sep 2
First Quarter
Sep 8
Full
Sep 15
Last Quarter
Sep 24
New

Today's Extremes

Country Highs Country Lows

Community

WunderPhotos

Upload Photos

1,747,785 photos uploaded!

Nearby

Snow Depth

Not available.

Earthquake Activity

City Distance Mag. Time & Date
No recent earthquake activity has been reported nearby.
Minimum magnitude displayed is 2.5.

Coastal Water Temperatures

Place Temperature
No Stations Reporting

Nearby Weather Stations